Time;durP1;ratioP1;P1;durP2;ratioP2;P2;SDS_P1;SDS_P2;PMS_P1;PMS_P2;Temp;Humidity;BMP_temperature;BMP_pressure;BME280_temperature;BME280_humidity;BME280_pressure;Samples;Min_cycle;Max_cycle;Signal;HPM_P1;HPM_P2
2023/03/26 00:02:10;;;;;;;10.23;3.03;;;;;;;7.06;81.45;100466.69;7387740;19;20018;-60
2023/03/26 00:04:36;;;;;;;13.20;2.75;;;;;;;7.06;81.19;100462.25;7397398;19;20057;-60
2023/03/26 00:07:02;;;;;;;7.18;2.20;;;;;;;7.04;81.00;100461.50;7396166;19;20007;-61
2023/03/26 00:09:28;;;;;;;10.20;2.22;;;;;;;7.10;80.96;100463.72;7397510;19;20006;-60
2023/03/26 00:11:55;;;;;;;12.50;2.40;;;;;;;7.03;80.94;100462.47;7397463;19;20010;-60
2023/03/26 00:14:21;;;;;;;12.15;2.40;;;;;;;7.03;80.76;100468.59;7396346;19;20004;-60
2023/03/26 00:16:48;;;;;;;10.30;2.13;;;;;;;7.07;80.63;100477.16;7396488;19;20007;-60
2023/03/26 00:19:14;;;;;;;12.27;2.50;;;;;;;7.08;80.40;100483.28;7397524;19;19998;-60
2023/03/26 00:21:40;;;;;;;12.00;2.67;;;;;;;6.98;81.22;100478.66;7395717;19;19995;-61
2023/03/26 00:24:13;;;;;;;12.68;2.28;;;;;;;7.03;80.53;100487.09;7397502;19;20016;-60
2023/03/26 00:26:40;;;;;;;14.32;2.15;;;;;;;7.02;80.63;100487.22;7396585;19;19999;-60
2023/03/26 00:29:12;;;;;;;14.93;3.65;;;;;;;6.90;80.69;100481.00;7395433;19;20029;-60
2023/03/26 00:31:38;;;;;;;12.68;3.00;;;;;;;6.92;80.92;100494.09;7395716;19;20412;-60
2023/03/26 00:34:09;;;;;;;14.48;3.28;;;;;;;6.97;80.92;100487.53;7395037;19;20035;-60
2023/03/26 00:36:34;;;;;;;14.30;3.90;;;;;;;6.98;81.13;100494.50;7395473;19;19999;-60
2023/03/26 00:39:04;;;;;;;12.07;3.55;;;;;;;7.04;81.16;100506.41;7396577;19;20026;-60
2023/03/26 00:41:30;;;;;;;14.95;3.83;;;;;;;7.01;80.63;100502.22;7394571;19;20010;-60
2023/03/26 00:43:58;;;;;;;13.73;3.08;;;;;;;7.05;80.60;100494.06;7396157;19;20477;-61
2023/03/26 00:46:25;;;;;;;9.82;2.65;;;;;;;7.02;80.31;100498.63;7392950;19;20016;-61
2023/03/26 00:48:51;;;;;;;14.80;2.92;;;;;;;6.98;79.43;100507.72;7397304;19;20009;-60
2023/03/26 00:51:19;;;;;;;14.85;3.22;;;;;;;6.98;79.96;100507.72;7393877;19;20339;-60
2023/03/26 00:53:46;;;;;;;12.55;2.75;;;;;;;7.01;79.74;100501.38;7395153;19;19995;-60
2023/03/26 00:56:13;;;;;;;16.30;3.17;;;;;;;7.03;79.62;100504.72;7392929;19;20065;-61
2023/03/26 00:58:39;;;;;;;14.35;2.88;;;;;;;6.99;79.59;100508.56;7395804;19;20032;-60
2023/03/26 01:01:12;;;;;;;11.60;2.55;;;;;;;6.89;80.01;100508.38;7392066;19;20003;-60
2023/03/26 01:03:38;;;;;;;9.98;2.10;;;;;;;6.87;80.01;100506.78;7396477;19;20167;-60
2023/03/26 01:06:10;;;;;;;13.23;2.67;;;;;;;6.90;80.08;100506.56;7394165;19;20026;-60
2023/03/26 01:08:41;;;;;;;12.57;2.20;;;;;;;6.86;79.86;100505.94;7395572;19;20003;-60
2023/03/26 01:11:16;;;;;;;9.48;2.17;;;;;;;6.79;80.01;100507.31;7390469;19;20010;-60
2023/03/26 01:13:49;;;;;;;13.18;2.45;;;;;;;6.79;79.87;100509.97;7393213;19;20014;-60
2023/03/26 01:16:25;;;;;;;9.90;2.10;;;;;;;6.86;79.43;100511.22;7394691;19;20468;-60
2023/03/26 01:18:53;;;;;;;13.35;2.50;;;;;;;6.83;79.59;100514.06;7394562;19;19999;-60
2023/03/26 01:21:27;;;;;;;9.98;3.08;;;;;;;6.78;79.44;100513.56;7390913;19;20009;-60
2023/03/26 01:24:07;;;;;;;12.20;2.78;;;;;;;6.80;79.72;100516.94;7386983;19;20023;-62
2023/03/26 01:26:47;;;;;;;14.85;3.08;;;;;;;6.83;79.21;100511.44;7397729;19;20010;-62
2023/03/26 01:29:42;;;;;;;15.25;3.47;;;;;;;6.79;78.69;100510.81;7394489;19;20009;-62
2023/03/26 01:32:31;;;;;;;14.93;3.70;;;;;;;6.81;78.53;100520.41;7395405;19;20510;-62
2023/03/26 01:35:29;;;;;;;13.32;3.33;;;;;;;6.86;78.31;100513.03;7391633;19;20003;-62
2023/03/26 01:38:01;;;;;;;14.60;3.65;;;;;;;6.86;78.62;100510.38;7394165;19;20040;-63
2023/03/26 01:40:30;;;;;;;12.90;3.05;;;;;;;6.87;78.62;100512.06;7394925;19;19998;-64
2023/03/26 01:43:11;;;;;;;11.65;2.47;;;;;;;6.86;78.74;100508.59;7392967;19;20329;-64
2023/03/26 01:45:40;;;;;;;9.50;2.38;;;;;;;6.86;78.94;100507.75;7393072;19;19999;-64
2023/03/26 01:48:06;;;;;;;10.48;2.40;;;;;;;6.79;78.98;100499.41;7394353;19;20454;-64
2023/03/26 01:50:31;;;;;;;11.07;2.17;;;;;;;6.81;79.29;100499.28;7392977;19;19995;-64
2023/03/26 01:52:57;;;;;;;12.60;2.30;;;;;;;6.83;79.49;100502.66;7393542;19;20006;-64
2023/03/26 01:55:30;;;;;;;10.25;2.13;;;;;;;6.83;79.49;100510.59;7393616;19;20001;-64
2023/03/26 01:58:07;;;;;;;9.00;2.25;;;;;;;6.90;79.43;100506.56;7394620;19;20035;-63
2023/03/26 02:00:40;;;;;;;12.82;2.28;;;;;;;6.91;79.13;100505.63;7394092;19;19998;-62
2023/03/26 02:03:29;;;;;;;14.80;2.75;;;;;;;6.67;79.90;100508.19;7391879;19;20324;-62
2023/03/26 02:06:08;;;;;;;10.38;1.92;;;;;;;6.75;79.69;100508.50;7392873;19;20034;-63
2023/03/26 02:09:07;;;;;;;13.57;2.63;;;;;;;6.89;79.02;100512.78;7394466;19;20002;-63
2023/03/26 02:11:36;;;;;;;10.85;2.58;;;;;;;6.92;78.96;100515.22;7393486;19;20514;-63
2023/03/26 02:14:03;;;;;;;12.93;2.70;;;;;;;6.91;78.69;100508.25;7391542;19;20007;-61
2023/03/26 02:16:29;;;;;;;12.65;2.55;;;;;;;6.85;78.44;100506.88;7392725;19;20011;-60
2023/03/26 02:18:54;;;;;;;15.52;2.97;;;;;;;6.84;78.23;100505.19;7393529;19;20328;-60
2023/03/26 02:21:22;;;;;;;10.23;2.15;;;;;;;6.83;77.42;100511.44;7393251;19;19999;-60
2023/03/26 02:23:56;;;;;;;12.63;2.42;;;;;;;6.88;76.36;100505.81;7391471;19;20088;-60
2023/03/26 02:26:22;;;;;;;12.65;2.45;;;;;;;6.88;76.01;100505.81;7391172;19;20003;-60
2023/03/26 02:28:48;;;;;;;18.05;2.78;;;;;;;6.85;75.79;100508.66;7393226;19;19999;-60
2023/03/26 02:31:14;;;;;;;15.00;2.30;;;;;;;6.93;75.76;100501.03;7391199;19;20032;-61
2023/03/26 02:33:46;;;;;;;13.40;2.92;;;;;;;6.87;75.07;100504.97;7391812;19;20014;-61
2023/03/26 02:36:12;;;;;;;18.08;3.63;;;;;;;6.80;75.07;100493.16;7391189;19;20002;-61
2023/03/26 02:38:39;;;;;;;16.10;3.92;;;;;;;6.83;75.11;100490.31;7392347;19;20470;-59
2023/03/26 02:41:04;;;;;;;13.98;3.70;;;;;;;6.88;74.96;100489.97;7393266;19;20002;-60
2023/03/26 02:43:30;;;;;;;15.40;3.13;;;;;;;6.87;75.05;100490.94;7391028;19;20321;-60
2023/03/26 02:45:56;;;;;;;11.98;2.92;;;;;;;6.90;74.67;100488.94;7392020;19;20003;-60
2023/03/26 02:48:22;;;;;;;10.48;2.60;;;;;;;6.87;74.94;100486.50;7392441;19;20003;-61
2023/03/26 02:50:53;;;;;;;12.32;3.10;;;;;;;6.86;74.99;100486.63;7391990;19;19988;-61
2023/03/26 02:53:22;;;;;;;11.00;2.50;;;;;;;6.91;74.82;100481.84;7390523;19;20022;-61
2023/03/26 02:55:48;;;;;;;15.75;3.80;;;;;;;6.93;75.04;100479.91;7390390;19;20448;-61
2023/03/26 02:58:17;;;;;;;17.20;3.50;;;;;;;6.94;75.01;100481.63;7392782;19;19999;-60
2023/03/26 03:00:43;;;;;;;17.50;3.95;;;;;;;6.99;75.13;100487.41;7391777;19;19994;-60
2023/03/26 03:03:09;;;;;;;13.23;2.95;;;;;;;7.01;75.00;100482.88;7388843;19;20004;-60
2023/03/26 03:05:36;;;;;;;10.45;3.10;;;;;;;6.94;75.31;100482.47;7390591;19;20002;-60
2023/03/26 03:08:04;;;;;;;19.30;4.45;;;;;;;6.92;75.29;100478.25;7392082;19;19998;-60
2023/03/26 03:10:31;;;;;;;18.63;4.40;;;;;;;6.89;75.54;100479.31;7391547;19;20019;-60
2023/03/26 03:12:58;;;;;;;15.55;4.03;;;;;;;6.90;74.99;100475.72;7391437;19;20014;-60
2023/03/26 03:15:23;;;;;;;16.50;3.53;;;;;;;6.91;74.82;100474.75;7388755;19;20026;-61
2023/03/26 03:17:49;;;;;;;15.82;4.55;;;;;;;6.90;75.07;100475.72;7391503;19;19998;-61
2023/03/26 03:20:15;;;;;;;15.15;4.20;;;;;;;6.92;75.69;100475.59;7392032;19;19998;-61
2023/03/26 03:22:41;;;;;;;10.18;2.78;;;;;;;6.96;75.75;100477.06;7390740;19;20011;-60
2023/03/26 03:25:08;;;;;;;15.98;3.03;;;;;;;6.98;75.97;100483.09;7389577;19;20003;-62
2023/03/26 03:27:34;;;;;;;12.32;2.70;;;;;;;6.96;75.80;100474.44;7392381;19;20034;-62
2023/03/26 03:29:59;;;;;;;12.77;2.45;;;;;;;6.97;76.30;100479.63;7390233;19;20007;-61
2023/03/26 03:32:26;;;;;;;12.63;2.50;;;;;;;6.98;76.65;100483.94;7391160;19;20002;-60
2023/03/26 03:34:52;;;;;;;12.90;2.70;;;;;;;7.01;76.76;100480.25;7388980;19;20025;-62
2023/03/26 03:37:18;;;;;;;11.75;2.50;;;;;;;6.93;76.67;100478.16;7394872;19;20070;-63
2023/03/26 03:39:44;;;;;;;10.23;2.35;;;;;;;6.92;76.45;100486.16;7404415;19;20010;-61
2023/03/26 03:42:10;;;;;;;14.45;2.83;;;;;;;6.94;76.55;100484.28;7404593;19;20033;-63
2023/03/26 03:44:35;;;;;;;14.90;3.67;;;;;;;6.87;76.14;100483.84;7404028;19;20002;-63
2023/03/26 03:47:01;;;;;;;14.52;3.03;;;;;;;6.85;76.11;100480.47;7404491;19;20312;-63
2023/03/26 03:49:26;;;;;;;20.50;4.28;;;;;;;6.90;75.73;100477.53;7404481;19;20006;-61
2023/03/26 03:51:52;;;;;;;16.15;2.72;;;;;;;6.88;75.46;100482.91;7404588;19;20011;-63
2023/03/26 03:54:17;;;;;;;18.65;4.32;;;;;;;6.84;74.51;100481.44;7403379;19;20032;-64
2023/03/26 03:56:44;;;;;;;15.75;3.90;;;;;;;6.84;74.28;100483.22;7403486;19;19998;-64
2023/03/26 03:59:10;;;;;;;13.18;3.72;;;;;;;6.82;73.67;100479.88;7405083;19;20006;-64
2023/03/26 04:01:36;;;;;;;16.33;3.33;;;;;;;6.81;72.99;100479.00;7404412;19;20339;-63
2023/03/26 04:04:02;;;;;;;15.63;3.25;;;;;;;6.75;72.81;100484.72;7405023;19;19998;-64
2023/03/26 04:06:29;;;;;;;14.73;2.90;;;;;;;6.73;72.77;100489.25;7405897;19;19998;-63
2023/03/26 04:08:55;;;;;;;13.52;3.22;;;;;;;6.75;72.57;100479.44;7406401;19;19998;-61
2023/03/26 04:11:21;;;;;;;13.55;3.22;;;;;;;6.75;72.62;100497.94;7404270;19;20005;-62
2023/03/26 04:13:47;;;;;;;13.70;2.47;;;;;;;6.68;72.22;100481.66;7405191;19;20065;-62
2023/03/26 04:16:13;;;;;;;11.77;2.63;;;;;;;6.66;72.00;100488.00;7403804;19;20045;-63
2023/03/26 04:18:39;;;;;;;15.45;2.60;;;;;;;6.71;72.31;100470.06;7406156;19;20005;-63
2023/03/26 04:21:06;;;;;;;14.07;2.65;;;;;;;6.71;72.10;100477.97;7405782;19;20358;-62
2023/03/26 04:23:33;;;;;;;9.52;2.45;;;;;;;6.76;72.10;100476.69;7404395;19;20033;-63
2023/03/26 04:26:05;;;;;;;13.95;3.00;;;;;;;6.72;72.13;100482.31;7405761;19;19991;-63
2023/03/26 04:28:59;;;;;;;12.52;2.90;;;;;;;6.66;72.39;100474.81;7397709;19;19995;-61
2023/03/26 04:31:29;;;;;;;13.93;3.15;;;;;;;6.64;72.53;100474.91;7405273;19;20014;-62
2023/03/26 04:34:00;;;;;;;14.45;2.97;;;;;;;6.63;72.74;100477.69;7405769;19;20007;-63
2023/03/26 04:36:31;;;;;;;17.25;3.42;;;;;;;6.61;72.31;100471.66;7405531;19;20013;-62
2023/03/26 04:39:03;;;;;;;16.73;3.08;;;;;;;6.63;72.32;100469.75;7404566;19;20019;-62
2023/03/26 04:41:31;;;;;;;14.77;3.33;;;;;;;6.64;71.94;100474.09;7402652;19;20481;-63
2023/03/26 04:44:00;;;;;;;14.40;3.65;;;;;;;6.52;71.41;100473.97;7401304;19;20466;-62
2023/03/26 04:46:27;;;;;;;13.35;3.70;;;;;;;6.50;71.22;100467.13;7400918;19;20041;-62
2023/03/26 04:48:53;;;;;;;15.48;3.03;;;;;;;6.48;70.97;100461.97;7397977;19;19998;-62
2023/03/26 04:51:24;;;;;;;11.55;2.63;;;;;;;6.47;70.68;100467.31;7394121;19;19998;-63
2023/03/26 04:53:56;;;;;;;17.38;2.63;;;;;;;6.35;68.05;100474.25;7392740;19;20464;-62
2023/03/26 04:56:47;;;;;;;14.38;2.40;;;;;;;6.29;68.50;100474.72;7394315;19;19991;-64
2023/03/26 04:59:16;;;;;;;13.82;2.70;;;;;;;6.26;68.26;100475.75;7396081;19;20417;-62
2023/03/26 05:01:44;;;;;;;21.92;2.97;;;;;;;6.26;67.97;100477.53;7393247;19;20005;-62
2023/03/26 05:04:12;;;;;;;14.27;2.67;;;;;;;6.23;67.42;100480.38;7393175;19;20079;-63
2023/03/26 05:06:40;;;;;;;12.05;2.20;;;;;;;6.30;67.15;100476.38;7393402;19;20026;-63
2023/03/26 05:09:07;;;;;;;10.10;2.38;;;;;;;6.28;65.88;100478.31;7396348;19;20002;-62
2023/03/26 05:11:33;;;;;;;15.52;2.45;;;;;;;6.25;65.94;100473.22;7392556;19;20492;-63
2023/03/26 05:13:58;;;;;;;12.75;2.28;;;;;;;6.25;65.19;100479.34;7393607;19;20003;-62
2023/03/26 05:16:24;;;;;;;12.10;2.17;;;;;;;6.29;64.88;100483.47;7392699;19;20002;-63
2023/03/26 05:18:50;;;;;;;15.10;2.15;;;;;;;6.28;65.13;100481.78;7395617;19;20062;-63
2023/03/26 05:21:16;;;;;;;14.80;1.75;;;;;;;6.30;64.51;100479.03;7394908;19;20010;-62
2023/03/26 05:23:41;;;;;;;9.88;2.10;;;;;;;6.28;64.15;100475.66;7392214;19;20020;-62
2023/03/26 05:26:08;;;;;;;11.70;2.28;;;;;;;6.30;64.11;100474.59;7392763;19;19999;-61
2023/03/26 05:28:34;;;;;;;12.27;2.00;;;;;;;6.33;64.50;100480.63;7394450;19;20025;-64
2023/03/26 05:31:00;;;;;;;11.38;2.53;;;;;;;6.36;64.56;100472.50;7393282;19;20062;-62
2023/03/26 05:33:25;;;;;;;13.95;2.63;;;;;;;6.41;64.40;100467.78;7392639;19;19994;-63
2023/03/26 05:36:08;;;;;;;13.90;2.42;;;;;;;6.46;64.59;100468.28;7392711;19;19995;-62
2023/03/26 05:38:34;;;;;;;11.88;2.60;;;;;;;6.46;64.43;100474.41;7394263;19;20002;-63
2023/03/26 05:41:05;;;;;;;12.85;2.72;;;;;;;6.47;64.59;100467.31;7396029;19;20006;-63
2023/03/26 05:43:31;;;;;;;12.90;2.97;;;;;;;6.48;63.74;100469.03;7393660;19;20010;-62
2023/03/26 05:45:56;;;;;;;10.18;2.17;;;;;;;6.51;62.98;100474.94;7391723;19;20046;-63
2023/03/26 05:48:22;;;;;;;11.82;2.33;;;;;;;6.48;62.76;100469.88;7393798;19;20002;-62
2023/03/26 05:50:50;;;;;;;9.13;2.15;;;;;;;6.48;62.93;100474.31;7392658;19;20002;-62
2023/03/26 05:53:15;;;;;;;12.82;1.98;;;;;;;6.52;63.45;100484.53;7392885;19;20132;-63
2023/03/26 05:55:44;;;;;;;18.15;2.90;;;;;;;6.54;63.12;100476.50;7391004;19;20038;-63
2023/03/26 05:58:11;;;;;;;14.40;2.45;;;;;;;6.61;63.41;100479.56;7394038;19;20019;-63
2023/03/26 06:00:37;;;;;;;12.18;2.45;;;;;;;6.66;63.38;100488.00;7393868;19;20010;-62
2023/03/26 06:03:03;;;;;;;11.57;2.15;;;;;;;6.66;63.45;100486.22;7393339;19;20006;-62
2023/03/26 06:05:36;;;;;;;11.10;2.40;;;;;;;6.63;63.79;100478.53;7392286;19;19999;-62
2023/03/26 06:08:02;;;;;;;13.73;2.25;;;;;;;6.59;63.94;100476.22;7393966;19;20003;-63
2023/03/26 06:10:28;;;;;;;13.30;2.60;;;;;;;6.57;64.09;100478.09;7390487;19;20435;-62
2023/03/26 06:12:53;;;;;;;13.73;2.22;;;;;;;6.54;64.05;100473.88;7393367;19;20006;-63
2023/03/26 06:15:19;;;;;;;16.20;2.63;;;;;;;6.54;64.75;100472.06;7389518;19;20001;-63
2023/03/26 06:17:47;;;;;;;18.50;3.00;;;;;;;6.58;64.40;100471.84;7394029;19;20002;-63
2023/03/26 06:20:14;;;;;;;17.42;3.42;;;;;;;6.56;64.40;100473.78;7392784;19;20006;-62
2023/03/26 06:22:39;;;;;;;12.48;2.80;;;;;;;6.52;64.70;100471.34;7391677;19;20031;-62
2023/03/26 06:25:05;;;;;;;18.38;3.10;;;;;;;6.54;65.05;100473.88;7389142;19;19995;-62
2023/03/26 06:27:31;;;;;;;13.82;3.03;;;;;;;6.57;65.22;100459.63;7392607;19;20070;-62
2023/03/26 06:29:56;;;;;;;18.38;3.35;;;;;;;6.63;64.93;100473.25;7393042;19;20007;-63
2023/03/26 06:32:22;;;;;;;14.82;2.90;;;;;;;6.66;65.18;100466.88;7392693;19;20014;-64
2023/03/26 06:34:47;;;;;;;16.48;3.45;;;;;;;6.58;65.11;100470.06;7392159;19;20003;-62
2023/03/26 06:37:14;;;;;;;11.23;3.10;;;;;;;6.62;65.19;100470.69;7391791;19;19999;-62
2023/03/26 06:39:40;;;;;;;17.13;2.83;;;;;;;6.68;65.18;100470.28;7392962;19;20568;-63
2023/03/26 06:42:06;;;;;;;15.20;2.78;;;;;;;6.69;65.41;100477.22;7391971;19;20027;-62
2023/03/26 06:44:32;;;;;;;19.25;2.53;;;;;;;6.66;65.57;100480.94;7389676;19;20010;-63
2023/03/26 06:46:57;;;;;;;21.90;3.35;;;;;;;6.59;65.61;100478.84;7392259;19;20086;-63
2023/03/26 06:49:23;;;;;;;15.13;2.95;;;;;;;6.59;65.66;100481.50;7390500;19;20002;-64
2023/03/26 06:51:48;;;;;;;13.27;2.85;;;;;;;6.58;65.69;100479.78;7391629;19;20479;-64
2023/03/26 06:54:14;;;;;;;14.85;2.55;;;;;;;6.64;65.55;100485.47;7389642;19;19999;-62
2023/03/26 06:56:39;;;;;;;17.40;2.90;;;;;;;6.64;65.44;100482.00;7390131;19;20078;-63
2023/03/26 06:59:05;;;;;;;18.23;3.00;;;;;;;6.63;66.05;100489.06;7391701;19;20062;-65
2023/03/26 07:01:30;;;;;;;17.48;2.90;;;;;;;6.67;65.93;100487.06;7393073;19;20478;-63
2023/03/26 07:03:57;;;;;;;17.98;3.58;;;;;;;6.60;66.05;100486.66;7389576;19;20050;-62
2023/03/26 07:06:22;;;;;;;16.38;3.40;;;;;;;6.64;66.42;100489.91;7390815;19;20006;-63
2023/03/26 07:08:48;;;;;;;15.95;2.53;;;;;;;6.59;66.04;100489.41;7389018;19;20007;-63
2023/03/26 07:11:15;;;;;;;16.15;3.08;;;;;;;6.62;66.20;100490.00;7389471;19;20026;-63
2023/03/26 07:13:41;;;;;;;18.77;3.10;;;;;;;6.58;66.11;100493.81;7386158;19;20026;-63
2023/03/26 07:16:07;;;;;;;16.05;2.70;;;;;;;6.57;66.45;100489.50;7390551;19;20475;-64
2023/03/26 07:18:32;;;;;;;16.77;3.28;;;;;;;6.54;66.53;100481.78;7388559;19;20003;-63
2023/03/26 07:20:58;;;;;;;13.02;2.33;;;;;;;6.59;65.99;100479.69;7391278;19;20001;-63
2023/03/26 07:23:24;;;;;;;14.68;2.65;;;;;;;6.62;64.60;100481.25;7390103;19;20481;-62
2023/03/26 07:25:50;;;;;;;13.85;2.50;;;;;;;6.67;63.82;100479.16;7387465;19;19995;-62
2023/03/26 07:28:38;;;;;;;19.88;2.97;;;;;;;6.56;62.08;100477.25;7388756;19;20022;-62
2023/03/26 07:31:18;;;;;;;17.63;2.55;;;;;;;6.58;63.22;100477.13;7389376;19;20019;-61
2023/03/26 07:33:46;;;;;;;16.50;2.60;;;;;;;6.58;63.21;100471.84;7389497;19;20015;-62
2023/03/26 07:36:24;;;;;;;13.90;2.55;;;;;;;6.66;62.17;100475.66;7388339;19;20028;-63
2023/03/26 07:39:08;;;;;;;16.50;2.90;;;;;;;6.65;62.46;100481.03;7390806;19;20478;-63
2023/03/26 07:41:49;;;;;;;13.20;2.37;;;;;;;6.57;61.87;100478.94;7390223;19;20006;-63
2023/03/26 07:44:22;;;;;;;16.63;2.75;;;;;;;6.67;61.40;100474.72;7388951;19;19995;-62
2023/03/26 07:46:52;;;;;;;13.82;2.65;;;;;;;6.66;60.93;100478.31;7379351;19;20014;-75
2023/03/26 07:49:37;;;;;;;10.95;2.42;;;;;;;6.63;60.27;100477.69;7380124;19;20020;-74
2023/03/26 07:52:21;;;;;;;15.30;2.95;;;;;;;6.69;60.38;100477.22;7381996;19;20002;-72
2023/03/26 07:55:06;;;;;;;13.32;2.58;;;;;;;6.76;60.31;100467.94;7386402;19;20486;-74
2023/03/26 07:57:59;;;;;;;11.85;2.90;;;;;;;6.83;58.89;100468.34;7389131;19;20002;-73
2023/03/26 08:00:39;;;;;;;13.30;2.72;;;;;;;6.82;59.89;100469.31;7390938;19;20003;-72
2023/03/26 08:03:22;;;;;;;19.00;3.05;;;;;;;6.83;59.07;100461.28;7388847;19;20338;-74
2023/03/26 08:05:57;;;;;;;16.40;2.60;;;;;;;6.85;59.16;100469.06;7388741;19;20006;-71
2023/03/26 08:08:52;;;;;;;14.32;2.67;;;;;;;6.88;57.44;100472.34;7387878;19;20019;-73
2023/03/26 08:11:24;;;;;;;15.02;2.38;;;;;;;6.89;58.61;100473.19;7387981;19;20006;-72
2023/03/26 08:14:04;;;;;;;11.13;2.67;;;;;;;6.98;57.71;100477.81;7389892;19;19998;-72
2023/03/26 08:16:48;;;;;;;16.25;3.47;;;;;;;7.00;57.90;100476.75;7387225;19;20019;-72
2023/03/26 08:19:39;;;;;;;17.67;2.97;;;;;;;7.09;58.17;100475.25;7390642;19;20003;-71
2023/03/26 08:22:19;;;;;;;15.50;2.60;;;;;;;7.08;57.97;100472.69;7389567;19;20007;-75
2023/03/26 08:25:12;;;;;;;12.07;2.35;;;;;;;7.10;57.88;100470.81;7393728;19;20482;-73
2023/03/26 08:27:42;;;;;;;16.73;2.95;;;;;;;7.10;58.11;100466.38;7396432;19;20010;-72
2023/03/26 08:30:19;;;;;;;16.20;2.80;;;;;;;7.05;57.76;100465.03;7398474;19;20324;-73
2023/03/26 08:32:55;;;;;;;12.40;2.38;;;;;;;7.12;57.26;100469.75;7396874;19;19999;-72
2023/03/26 08:35:27;;;;;;;13.63;2.65;;;;;;;7.11;57.67;100475.13;7395554;19;20006;-76
2023/03/26 08:37:53;;;;;;;16.73;3.42;;;;;;;7.25;58.07;100469.69;7397597;19;20002;-76
2023/03/26 08:40:51;;;;;;;18.63;2.70;;;;;;;7.28;56.66;100465.03;7396575;19;20018;-76
2023/03/26 08:43:45;;;;;;;14.15;2.60;;;;;;;7.30;57.06;100472.84;7389924;19;20002;-76
2023/03/26 08:46:17;;;;;;;14.95;2.90;;;;;;;7.22;57.70;100475.19;7397623;19;20011;-74
2023/03/26 08:49:04;;;;;;;16.92;2.80;;;;;;;7.34;56.94;100478.75;7395302;19;20007;-75
2023/03/26 08:52:07;;;;;;;14.73;2.72;;;;;;;7.43;55.37;100484.22;7397734;19;20014;-73
2023/03/26 08:55:09;;;;;;;13.77;3.00;;;;;;;7.43;54.71;100478.94;7391443;19;20011;-74
2023/03/26 08:58:12;;;;;;;17.90;3.35;;;;;;;7.53;55.78;100484.38;7399074;19;20031;-74
2023/03/26 09:00:43;;;;;;;16.05;3.05;;;;;;;7.51;55.78;100486.28;7395488;19;20467;-75
2023/03/26 09:03:22;;;;;;;12.25;2.80;;;;;;;7.59;54.82;100489.22;7400603;19;20023;-76
2023/03/26 09:06:16;;;;;;;14.75;2.67;;;;;;;7.41;54.73;100485.28;7392603;19;20022;-76
2023/03/26 09:08:54;;;;;;;15.52;2.60;;;;;;;7.39;54.83;100489.84;7395554;19;20023;-74
2023/03/26 09:11:51;;;;;;;11.73;2.28;;;;;;;7.27;53.79;100487.13;7397504;19;20015;-75
2023/03/26 09:14:58;;;;;;;14.88;2.50;;;;;;;7.22;54.12;100485.78;7395562;19;19999;-75
2023/03/26 09:17:49;;;;;;;11.18;2.25;;;;;;;7.40;53.86;100478.31;7392194;19;20006;-74
2023/03/26 09:20:37;;;;;;;16.02;2.60;;;;;;;7.40;54.88;100483.59;7395042;19;20006;-74
2023/03/26 09:23:20;;;;;;;14.90;2.35;;;;;;;7.53;53.19;100487.84;7397529;19;19995;-75
2023/03/26 09:25:56;;;;;;;11.83;2.17;;;;;;;7.57;53.20;100495.56;7396118;19;20016;-78
2023/03/26 09:29:00;;;;;;;12.13;2.45;;;;;;;7.51;51.98;100486.28;7413535;19;20255;-77
2023/03/26 09:31:46;;;;;;;15.93;2.78;;;;;;;7.64;52.14;100488.88;7420416;19;20002;-76
2023/03/26 09:34:26;;;;;;;10.73;2.42;;;;;;;7.65;52.87;100485.25;7400687;19;20003;-76
2023/03/26 09:37:15;;;;;;;11.82;2.20;;;;;;;7.55;51.21;100489.56;7393471;19;20007;-77
2023/03/26 09:39:48;;;;;;;14.55;2.50;;;;;;;7.55;52.85;100484.28;7398006;19;20003;-73
2023/03/26 09:42:23;;;;;;;11.65;2.22;;;;;;;7.64;52.30;100488.88;7397027;19;20446;-76
2023/03/26 09:45:09;;;;;;;11.73;2.72;;;;;;;7.58;51.19;100486.66;7395753;19;20027;-76
2023/03/26 09:47:52;;;;;;;11.38;2.55;;;;;;;7.56;51.21;100497.38;7395673;19;20074;-76
2023/03/26 09:50:31;;;;;;;14.53;2.57;;;;;;;7.84;51.90;100498.78;7395850;19;20001;-76
2023/03/26 09:53:20;;;;;;;9.90;2.00;;;;;;;8.12;50.60;100489.63;7395347;19;20019;-76
2023/03/26 09:55:59;;;;;;;16.05;2.92;;;;;;;8.18;50.88;100481.22;7395650;19;19995;-74
2023/03/26 09:58:59;;;;;;;13.00;3.05;;;;;;;8.23;49.56;100484.38;7394155;19;19995;-75
2023/03/26 10:01:59;;;;;;;19.23;3.67;;;;;;;8.24;49.14;100486.06;7392712;19;20046;-75
2023/03/26 10:04:46;;;;;;;17.65;3.00;;;;;;;8.34;49.94;100485.34;7393376;19;20002;-75
2023/03/26 10:07:37;;;;;;;19.85;3.42;;;;;;;8.40;51.12;100491.03;7394206;19;20010;-75
2023/03/26 10:10:17;;;;;;;15.20;3.13;;;;;;;8.45;50.33;100490.66;7397452;19;20014;-75
2023/03/26 10:12:49;;;;;;;15.32;2.97;;;;;;;8.52;50.09;100493.69;7394247;19;20003;-74
2023/03/26 10:15:58;;;;;;;15.90;2.90;;;;;;;8.47;49.30;100491.41;7392039;19;20037;-74
2023/03/26 10:19:12;;;;;;;19.73;3.05;;;;;;;8.29;49.08;100488.38;7393916;19;20007;-75
2023/03/26 10:22:16;;;;;;;20.55;3.30;;;;;;;8.23;49.74;100489.66;7391682;19;20006;-73
2023/03/26 10:24:56;;;;;;;18.67;3.40;;;;;;;8.30;50.94;100487.41;7391719;19;20483;-73
2023/03/26 10:27:35;;;;;;;17.90;3.08;;;;;;;8.44;49.99;100486.34;7389904;19;20006;-75
2023/03/26 10:30:29;;;;;;;19.85;3.33;;;;;;;8.43;49.17;100485.50;7392353;19;20099;-73
2023/03/26 10:33:19;;;;;;;14.55;2.85;;;;;;;8.36;49.50;100483.44;7392321;19;20490;-74
2023/03/26 10:36:25;;;;;;;15.18;3.00;;;;;;;8.37;48.79;100479.84;7390193;19;20014;-72
2023/03/26 10:39:26;;;;;;;14.77;2.95;;;;;;;8.55;49.30;100478.41;7392681;19;19999;-73
2023/03/26 10:42:09;;;;;;;14.07;3.08;;;;;;;8.51;48.20;100481.44;7392848;19;20028;-75
2023/03/26 10:45:02;;;;;;;18.38;3.28;;;;;;;8.48;48.88;100485.97;7389361;19;20040;-74
2023/03/26 10:47:52;;;;;;;15.20;2.47;;;;;;;8.44;48.70;100473.13;7386157;19;20017;-75
2023/03/26 10:50:40;;;;;;;14.90;3.33;;;;;;;8.61;50.21;100469.16;7392222;19;20006;-74
2023/03/26 10:53:15;;;;;;;16.00;3.13;;;;;;;8.83;49.90;100473.59;7394648;19;20058;-74
2023/03/26 10:55:45;;;;;;;23.02;3.63;;;;;;;8.74;50.00;100478.66;7390496;19;20005;-73
2023/03/26 10:58:17;;;;;;;19.63;3.88;;;;;;;8.77;49.48;100482.03;7392320;19;20016;-73
2023/03/26 11:00:54;;;;;;;15.80;3.30;;;;;;;8.71;48.98;100481.53;7392181;19;19998;-65
2023/03/26 11:03:27;;;;;;;18.15;3.40;;;;;;;8.77;48.37;100482.03;7391508;19;20025;-65
2023/03/26 11:06:09;;;;;;;17.27;3.45;;;;;;;8.61;48.89;100485.06;7387396;19;20370;-65
2023/03/26 11:09:32;;;;;;;15.43;3.05;;;;;;;8.68;47.55;100480.94;7391570;19;19998;-64
2023/03/26 11:12:17;;;;;;;16.80;2.90;;;;;;;8.83;48.93;100492.97;7387920;19;20519;-64
2023/03/26 11:14:51;;;;;;;18.92;3.30;;;;;;;8.84;48.06;100489.38;7386644;19;20004;-65
2023/03/26 11:17:50;;;;;;;14.20;3.03;;;;;;;8.76;48.20;100494.44;7387705;19;20054;-65
2023/03/26 11:20:18;;;;;;;12.35;2.60;;;;;;;8.76;48.10;100489.16;7392070;19;20003;-65
2023/03/26 11:23:17;;;;;;;14.07;3.00;;;;;;;8.80;47.60;100501.19;7389246;19;20030;-65
2023/03/26 11:26:00;;;;;;;19.10;3.17;;;;;;;8.69;47.96;100496.72;7389375;19;19999;-65
2023/03/26 11:28:46;;;;;;;16.63;3.53;;;;;;;8.70;47.82;100493.09;7391037;19;20058;-64
2023/03/26 11:31:36;;;;;;;17.40;3.58;;;;;;;8.68;47.33;100496.81;7387397;19;20393;-64
2023/03/26 11:34:15;;;;;;;12.15;2.58;;;;;;;8.49;47.78;100489.47;7390752;19;20005;-65
2023/03/26 11:36:46;;;;;;;14.85;3.15;;;;;;;8.47;48.44;100491.41;7388166;19;19999;-65
2023/03/26 11:39:21;;;;;;;15.75;3.08;;;;;;;8.34;48.03;100491.53;7390552;19;19991;-65
2023/03/26 11:41:49;;;;;;;16.88;3.25;;;;;;;8.24;48.35;100487.84;7391130;19;20003;-65
2023/03/26 11:44:30;;;;;;;13.45;2.55;;;;;;;8.19;47.68;100495.31;7390252;19;20018;-66
2023/03/26 11:47:02;;;;;;;12.30;2.40;;;;;;;8.22;47.42;100492.41;7388469;19;20022;-64
2023/03/26 11:49:28;;;;;;;12.80;2.70;;;;;;;8.66;46.98;100482.88;7390514;19;19998;-66
2023/03/26 11:51:53;;;;;;;11.43;2.58;;;;;;;9.12;45.59;100482.72;7392992;19;20494;-65
2023/03/26 11:54:19;;;;;;;12.02;2.65;;;;;;;9.26;44.86;100478.13;7389907;19;20002;-64
2023/03/26 11:57:00;;;;;;;15.18;2.90;;;;;;;9.00;43.85;100472.25;7388877;19;20002;-64
2023/03/26 11:59:34;;;;;;;13.75;2.95;;;;;;;9.03;45.79;100479.94;7396829;19;20017;-64